createdAt,value
2019-03-16T00:02:19.269Z,2.03
2019-03-16T00:04:47.807Z,2.10
2019-03-16T00:07:16.341Z,2.50
2019-03-16T00:09:44.937Z,2.27
2019-03-16T00:12:13.445Z,2.77
2019-03-16T00:14:42.261Z,2.33
2019-03-16T00:17:10.966Z,2.40
2019-03-16T00:19:39.958Z,2.42
2019-03-16T00:22:08.468Z,2.57
2019-03-16T00:24:36.956Z,2.25
2019-03-16T00:27:07.297Z,2.98
2019-03-16T00:29:36.404Z,2.25
2019-03-16T00:32:13.342Z,2.08
2019-03-16T00:34:36.952Z,1.93
2019-03-16T00:37:07.420Z,1.70
2019-03-16T00:39:35.922Z,2.08
2019-03-16T00:42:06.909Z,1.66
2019-03-16T00:44:36.506Z,2.45
2019-03-16T00:47:06.593Z,2.52
2019-03-16T00:49:36.307Z,1.90
2019-03-16T00:52:07.594Z,1.82
2019-03-16T00:54:37.637Z,1.75
2019-03-16T00:57:07.092Z,2.00
2019-03-16T00:59:35.862Z,1.80
2019-03-16T01:02:05.784Z,2.00
2019-03-16T01:04:34.804Z,1.90
2019-03-16T01:07:05.974Z,1.72
2019-03-16T01:09:35.676Z,1.40
2019-03-16T01:12:05.639Z,1.50
2019-03-16T01:14:34.739Z,1.82
2019-03-16T01:17:03.271Z,1.55
2019-03-16T01:19:33.443Z,1.60
2019-03-16T01:22:04.797Z,1.85
2019-03-16T01:24:33.270Z,1.85
2019-03-16T01:27:02.360Z,1.40
2019-03-16T01:29:30.870Z,1.98
2019-03-16T01:31:59.852Z,1.55
2019-03-16T01:34:28.345Z,1.60
2019-03-16T01:36:57.468Z,1.12
2019-03-16T01:39:26.259Z,1.60
2019-03-16T01:41:55.039Z,1.40
2019-03-16T01:44:23.621Z,1.23
2019-03-16T01:46:52.119Z,1.70
2019-03-16T01:49:20.606Z,1.67
2019-03-16T01:51:49.483Z,1.77
2019-03-16T01:54:17.984Z,1.50
2019-03-16T01:56:46.783Z,1.93
2019-03-16T01:59:15.859Z,1.67
2019-03-16T02:01:44.624Z,1.53
2019-03-16T02:04:13.300Z,1.67
2019-03-16T02:06:42.111Z,1.03
2019-03-16T02:09:10.589Z,1.57
2019-03-16T02:11:39.380Z,1.40
2019-03-16T02:14:07.933Z,1.67
2019-03-16T02:16:36.779Z,1.22
2019-03-16T02:19:06.691Z,1.28
2019-03-16T02:21:35.801Z,1.75
2019-03-16T02:24:05.117Z,1.10
2019-03-16T02:26:33.897Z,1.30
2019-03-16T02:29:02.853Z,1.12
2019-03-16T02:31:31.451Z,1.10
2019-03-16T02:34:00.226Z,1.90
2019-03-16T02:36:29.045Z,1.60
2019-03-16T02:38:57.524Z,1.30
2019-03-16T02:41:26.314Z,1.80
2019-03-16T02:43:55.838Z,1.35
2019-03-16T02:46:25.682Z,1.80
2019-03-16T02:48:54.146Z,1.12
2019-03-16T02:51:22.963Z,1.30
2019-03-16T02:53:52.197Z,1.47
2019-03-16T02:56:20.821Z,1.83
2019-03-16T02:58:49.390Z,1.50
2019-03-16T03:01:17.900Z,1.87
2019-03-16T03:03:46.404Z,1.30
2019-03-16T03:06:14.926Z,1.63
2019-03-16T03:08:43.413Z,1.87
2019-03-16T03:11:12.035Z,1.53
2019-03-16T03:13:40.562Z,1.72
2019-03-16T03:16:09.048Z,1.70
2019-03-16T03:18:37.533Z,1.75
2019-03-16T03:21:06.958Z,1.65
2019-03-16T03:23:36.441Z,1.60
2019-03-16T03:26:07.314Z,2.00
2019-03-16T03:28:35.809Z,1.47
2019-03-16T03:31:06.965Z,1.60
2019-03-16T03:33:57.634Z,1.52
2019-03-16T03:36:06.619Z,1.50
2019-03-16T03:38:35.687Z,1.60
2019-03-16T03:41:05.537Z,1.57
2019-03-16T03:43:34.637Z,1.87
2019-03-16T03:46:03.128Z,1.52
2019-03-16T03:48:33.260Z,1.82
2019-03-16T03:51:01.973Z,1.75
2019-03-16T03:53:30.470Z,1.47
2019-03-16T03:55:59.776Z,1.52
2019-03-16T03:58:28.569Z,1.60
2019-03-16T04:00:57.599Z,1.45
2019-03-16T04:03:26.393Z,2.03
2019-03-16T04:05:54.928Z,1.77
2019-03-16T04:08:23.409Z,2.37
2019-03-16T04:10:53.338Z,1.87
2019-03-16T04:13:21.862Z,1.63
2019-03-16T04:15:50.694Z,1.90
2019-03-16T04:18:19.750Z,1.80
2019-03-16T04:20:48.267Z,1.60
2019-03-16T04:23:17.052Z,1.55
2019-03-16T04:25:45.540Z,1.57
2019-03-16T04:28:14.677Z,1.65
2019-03-16T04:30:43.309Z,2.67
2019-03-16T04:33:12.137Z,1.85
2019-03-16T04:35:41.288Z,1.95
2019-03-16T04:38:10.829Z,1.70
2019-03-16T04:40:39.384Z,1.95
2019-03-16T04:43:07.898Z,2.20
2019-03-16T04:45:36.667Z,2.00
2019-03-16T04:48:06.654Z,2.28
2019-03-16T04:50:35.784Z,1.72
2019-03-16T04:53:07.096Z,1.67
2019-03-16T04:55:35.827Z,1.62
2019-03-16T04:58:06.521Z,1.70
2019-03-16T05:00:35.027Z,2.10
2019-03-16T05:03:08.111Z,1.70
2019-03-16T05:05:35.689Z,2.20
2019-03-16T05:08:05.628Z,1.65
2019-03-16T05:10:34.867Z,1.50
2019-03-16T05:13:05.429Z,2.23
2019-03-16T05:15:34.456Z,2.37
2019-03-16T05:18:03.130Z,1.20
2019-03-16T05:20:31.735Z,1.47
2019-03-16T05:23:00.550Z,1.10
2019-03-16T05:25:29.319Z,1.40
2019-03-16T05:27:57.815Z,1.12
2019-03-16T05:30:26.684Z,1.20
2019-03-16T05:32:55.464Z,1.30
2019-03-16T05:35:23.956Z,1.87
2019-03-16T05:37:52.648Z,1.22
2019-03-16T05:40:21.661Z,1.50
2019-03-16T05:42:50.144Z,1.50
2019-03-16T05:45:19.293Z,2.15
2019-03-16T05:47:47.796Z,1.20
2019-03-16T05:50:16.488Z,1.33
2019-03-16T05:52:44.999Z,1.67
2019-03-16T05:55:13.793Z,1.20
2019-03-16T05:57:42.306Z,1.22
2019-03-16T06:00:14.063Z,2.00
2019-03-16T06:02:45.406Z,1.50
2019-03-16T06:05:15.821Z,1.45
2019-03-16T06:07:44.350Z,1.50
2019-03-16T06:10:13.609Z,2.15
2019-03-16T06:12:42.762Z,1.52
2019-03-16T06:15:12.683Z,1.73
2019-03-16T06:17:41.730Z,1.30
2019-03-16T06:20:11.141Z,1.63
2019-03-16T06:22:40.299Z,1.32
2019-03-16T06:25:09.182Z,1.20
2019-03-16T06:27:38.022Z,1.13
2019-03-16T06:30:08.332Z,1.30
2019-03-16T06:32:36.846Z,1.30
2019-03-16T06:35:07.609Z,1.20
2019-03-16T06:37:36.085Z,1.62
2019-03-16T06:40:07.322Z,1.50
2019-03-16T06:42:36.455Z,1.20
2019-03-16T06:45:08.104Z,1.20
2019-03-16T06:47:36.704Z,1.40
2019-03-16T06:50:10.498Z,1.70
2019-03-16T06:52:39.069Z,1.30
2019-03-16T06:55:08.196Z,1.20
2019-03-16T06:57:37.283Z,1.70
2019-03-16T07:00:07.593Z,1.20
2019-03-16T07:02:36.760Z,1.40
2019-03-16T07:05:08.631Z,1.64
2019-03-16T07:07:37.436Z,1.00
2019-03-16T07:10:08.683Z,1.30
2019-03-16T07:12:37.639Z,1.35
2019-03-16T07:15:13.479Z,1.72
2019-03-16T07:17:43.024Z,1.40
2019-03-16T07:20:15.192Z,1.53
2019-03-16T07:22:44.395Z,1.30
2019-03-16T07:25:14.036Z,1.10
2019-03-16T07:27:42.971Z,1.47
2019-03-16T07:30:13.306Z,1.37
2019-03-16T07:32:42.591Z,1.93
2019-03-16T07:35:11.595Z,0.95
2019-03-16T07:37:54.145Z,1.17
2019-03-16T07:40:23.839Z,1.10
2019-03-16T07:42:55.406Z,0.85
2019-03-16T07:45:24.537Z,0.90
2019-03-16T07:47:53.093Z,0.98
2019-03-16T07:50:22.026Z,1.10
2019-03-16T07:52:50.571Z,1.00
2019-03-16T07:55:19.632Z,0.70
2019-03-16T07:57:48.123Z,1.12
2019-03-16T08:00:17.655Z,1.27
2019-03-16T08:02:46.270Z,0.80
2019-03-16T08:05:18.834Z,1.25
2019-03-16T08:07:45.521Z,0.90
2019-03-16T08:10:14.242Z,1.30
2019-03-16T08:12:43.031Z,1.37
2019-03-16T08:15:11.573Z,1.23
2019-03-16T08:17:40.378Z,1.37
2019-03-16T08:20:11.751Z,1.70
2019-03-16T08:22:42.375Z,1.67
2019-03-16T08:25:11.319Z,1.62
2019-03-16T08:27:53.062Z,1.40
2019-03-16T08:30:11.189Z,1.43
2019-03-16T08:32:40.173Z,1.57
2019-03-16T08:35:09.492Z,1.75
2019-03-16T08:37:38.087Z,1.70
2019-03-16T08:40:08.072Z,2.15
2019-03-16T08:42:37.265Z,1.50
2019-03-16T08:45:06.663Z,2.22
2019-03-16T08:47:35.559Z,2.00
2019-03-16T08:50:06.598Z,3.53
2019-03-16T08:52:36.404Z,2.50
2019-03-16T08:55:07.568Z,3.10
2019-03-16T08:57:36.631Z,1.67
2019-03-16T09:00:08.366Z,2.28
2019-03-16T09:02:37.001Z,2.30
2019-03-16T09:05:07.630Z,2.15
2019-03-16T09:07:36.506Z,2.47
2019-03-16T09:10:09.484Z,2.62
2019-03-16T09:12:38.296Z,2.50
2019-03-16T09:15:11.056Z,2.50
2019-03-16T09:17:39.940Z,2.50
2019-03-16T09:20:08.927Z,2.25
2019-03-16T09:22:38.532Z,2.55
2019-03-16T09:25:10.706Z,2.08
2019-03-16T09:27:39.818Z,3.02
2019-03-16T09:30:09.915Z,3.00
2019-03-16T09:32:38.502Z,2.83
2019-03-16T09:35:07.169Z,2.53
2019-03-16T09:37:35.868Z,2.20
2019-03-16T09:40:11.077Z,2.23
2019-03-16T09:42:40.405Z,2.40
2019-03-16T09:45:10.307Z,2.03
2019-03-16T09:47:39.126Z,2.42
2019-03-16T09:50:08.719Z,2.30
2019-03-16T09:52:37.522Z,2.73
2019-03-16T09:55:07.656Z,2.13
2019-03-16T09:57:36.807Z,2.20
2019-03-16T10:00:18.075Z,2.28
2019-03-16T10:02:49.236Z,2.90
2019-03-16T10:05:17.937Z,2.90
2019-03-16T10:07:46.498Z,2.10
2019-03-16T10:10:16.022Z,2.23
2019-03-16T10:12:45.125Z,2.35
2019-03-16T10:15:14.395Z,2.30
2019-03-16T10:17:42.982Z,2.20
2019-03-16T10:20:13.300Z,2.83
2019-03-16T10:22:42.580Z,2.67
2019-03-16T10:25:11.182Z,2.80
2019-03-16T10:27:39.676Z,2.40
2019-03-16T10:30:09.884Z,2.50
2019-03-16T10:32:39.199Z,2.58
2019-03-16T10:35:08.078Z,2.33
2019-03-16T10:37:36.954Z,3.10
2019-03-16T10:40:08.817Z,2.67
2019-03-16T10:42:37.934Z,2.83
2019-03-16T10:45:08.023Z,2.20
2019-03-16T10:47:36.610Z,2.60
2019-03-16T10:50:07.647Z,2.37
2019-03-16T10:52:36.246Z,2.85
2019-03-16T10:55:07.647Z,2.60
2019-03-16T10:57:36.274Z,2.95
2019-03-16T11:00:13.722Z,2.58
2019-03-16T11:02:44.409Z,2.85
2019-03-16T11:05:13.294Z,2.40
2019-03-16T11:07:42.179Z,2.60
2019-03-16T11:10:11.870Z,2.90
2019-03-16T11:12:40.865Z,3.10
2019-03-16T11:15:12.912Z,2.50
2019-03-16T11:17:43.048Z,2.70
2019-03-16T11:20:13.681Z,3.05
2019-03-16T11:22:42.992Z,2.40
2019-03-16T11:25:11.934Z,2.23
2019-03-16T11:27:41.775Z,2.03
2019-03-16T11:30:12.010Z,2.77
2019-03-16T11:32:40.578Z,2.50
2019-03-16T11:35:10.320Z,2.76
2019-03-16T11:37:39.489Z,2.72
2019-03-16T11:40:12.991Z,2.60
2019-03-16T11:42:41.530Z,2.60
2019-03-16T11:45:11.278Z,3.25
2019-03-16T11:47:39.959Z,2.27
2019-03-16T11:50:09.259Z,2.55
2019-03-16T11:52:38.252Z,2.58
2019-03-16T11:55:10.421Z,2.58
2019-03-16T11:57:39.209Z,2.70
2019-03-16T12:00:38.553Z,2.30
2019-03-16T12:02:53.154Z,2.42
2019-03-16T12:05:22.709Z,3.07
2019-03-16T12:07:51.195Z,2.70
2019-03-16T12:10:19.727Z,2.30
2019-03-16T12:12:48.509Z,2.08
2019-03-16T12:15:17.095Z,2.40
2019-03-16T12:17:45.703Z,2.72
2019-03-16T12:20:18.092Z,2.80
2019-03-16T12:22:46.241Z,3.02
2019-03-16T12:25:15.624Z,2.60
2019-03-16T12:27:55.817Z,2.67
2019-03-16T12:30:24.352Z,2.47
2019-03-16T12:32:53.472Z,1.97
2019-03-16T12:35:23.891Z,2.80
2019-03-16T12:37:52.781Z,2.05
2019-03-16T12:40:21.865Z,2.80
2019-03-16T12:42:51.076Z,2.70
2019-03-16T12:45:25.169Z,2.27
2019-03-16T12:47:54.386Z,3.20
2019-03-16T12:50:22.974Z,3.03
2019-03-16T12:52:51.529Z,2.90
2019-03-16T12:55:20.539Z,3.07
2019-03-16T12:57:49.439Z,5.17
2019-03-16T13:00:19.425Z,3.70
2019-03-16T13:02:48.456Z,4.97
2019-03-16T13:05:17.206Z,4.10
2019-03-16T13:07:48.365Z,3.00
2019-03-16T13:10:18.699Z,3.15
2019-03-16T13:12:47.682Z,4.10
2019-03-16T13:15:16.383Z,2.83
2019-03-16T13:17:45.559Z,3.25
2019-03-16T13:20:15.069Z,2.40
2019-03-16T13:22:45.391Z,3.08
2019-03-16T13:25:15.237Z,2.90
2019-03-16T13:27:44.085Z,3.23
2019-03-16T13:30:16.097Z,2.07
2019-03-16T13:32:44.745Z,2.87
2019-03-16T13:35:13.808Z,2.92
2019-03-16T13:37:43.141Z,2.85
2019-03-16T13:40:12.832Z,2.40
2019-03-16T13:42:41.379Z,2.30
2019-03-16T13:45:10.716Z,2.90
2019-03-16T13:47:40.122Z,2.55
2019-03-16T13:50:15.640Z,2.53
2019-03-16T13:52:45.997Z,2.10
2019-03-16T13:55:15.591Z,2.83
2019-03-16T13:57:46.018Z,2.50
2019-03-16T14:00:18.952Z,2.13
2019-03-16T14:02:47.983Z,2.77
2019-03-16T14:05:16.682Z,2.53
2019-03-16T14:07:45.616Z,3.27
2019-03-16T14:10:18.743Z,2.85
2019-03-16T14:12:47.457Z,2.12
2019-03-16T14:15:17.628Z,2.80
2019-03-16T14:17:46.249Z,2.45
2019-03-16T14:20:15.448Z,2.70
2019-03-16T14:22:43.944Z,3.58
2019-03-16T14:25:12.600Z,2.53
2019-03-16T14:27:41.168Z,2.65
2019-03-16T14:30:25.157Z,2.50
2019-03-16T14:32:41.917Z,2.37
2019-03-16T14:35:10.623Z,2.83
2019-03-16T14:37:39.491Z,2.22
2019-03-16T14:40:12.390Z,2.70
2019-03-16T14:42:40.054Z,2.58
2019-03-16T14:45:09.844Z,2.42
2019-03-16T14:47:38.742Z,2.80
2019-03-16T14:50:12.152Z,2.90
2019-03-16T14:52:41.023Z,2.50
2019-03-16T14:55:11.363Z,3.37
2019-03-16T14:57:41.261Z,2.67
2019-03-16T15:00:16.209Z,3.08
2019-03-16T15:02:48.091Z,2.60
2019-03-16T15:05:17.107Z,2.25
2019-03-16T15:07:49.189Z,2.50
2019-03-16T15:10:18.243Z,3.27
2019-03-16T15:12:47.000Z,3.10
2019-03-16T15:15:17.122Z,2.90
2019-03-16T15:17:45.797Z,2.60
2019-03-16T15:20:14.386Z,3.03
2019-03-16T15:22:42.870Z,2.70
2019-03-16T15:25:12.151Z,3.33
2019-03-16T15:27:44.130Z,3.13
2019-03-16T15:30:14.945Z,3.03
2019-03-16T15:32:43.755Z,2.05
2019-03-16T15:35:12.889Z,2.53
2019-03-16T15:37:42.857Z,2.50
2019-03-16T15:40:15.445Z,2.53
2019-03-16T15:42:44.863Z,2.58
2019-03-16T15:45:19.244Z,2.87
2019-03-16T15:47:50.752Z,2.60
2019-03-16T15:50:19.783Z,3.23
2019-03-16T15:52:48.466Z,3.10
2019-03-16T15:55:17.460Z,2.83
2019-03-16T15:57:47.819Z,2.83
2019-03-16T16:00:21.563Z,3.05
2019-03-16T16:02:50.258Z,2.65
2019-03-16T16:05:18.974Z,3.03
2019-03-16T16:07:47.538Z,3.05
2019-03-16T16:10:19.624Z,3.27
2019-03-16T16:12:48.671Z,3.52
2019-03-16T16:15:17.501Z,2.60
2019-03-16T16:17:46.592Z,2.70
2019-03-16T16:20:15.757Z,3.13
2019-03-16T16:22:44.862Z,3.22
2019-03-16T16:25:14.316Z,2.90
2019-03-16T16:27:43.325Z,3.02
2019-03-16T16:30:16.344Z,3.37
2019-03-16T16:32:46.563Z,3.00
2019-03-16T16:35:15.949Z,2.40
2019-03-16T16:37:45.574Z,2.80
2019-03-16T16:40:15.405Z,2.98
2019-03-16T16:42:44.276Z,2.67
2019-03-16T16:45:14.103Z,2.42
2019-03-16T16:47:43.358Z,2.52
2019-03-16T16:50:13.911Z,2.37
2019-03-16T16:52:43.024Z,2.80
2019-03-16T16:55:11.595Z,2.63
2019-03-16T16:57:40.681Z,2.80
2019-03-16T17:00:11.132Z,2.70
2019-03-16T17:02:39.697Z,2.98
2019-03-16T17:05:08.784Z,2.70
2019-03-16T17:07:38.103Z,3.08
2019-03-16T17:10:11.093Z,3.13
2019-03-16T17:12:39.771Z,2.40
2019-03-16T17:15:09.976Z,2.60
2019-03-16T17:17:39.172Z,3.12
2019-03-16T17:20:09.292Z,3.67
2019-03-16T17:22:37.991Z,3.20
2019-03-16T17:25:08.111Z,2.87
2019-03-16T17:27:36.624Z,3.42
2019-03-16T17:30:08.829Z,3.12
2019-03-16T17:32:37.650Z,3.10
2019-03-16T17:35:08.481Z,3.15
2019-03-16T17:37:37.177Z,2.80
2019-03-16T17:40:08.100Z,2.80
2019-03-16T17:42:37.604Z,2.87
2019-03-16T17:45:08.109Z,2.85
2019-03-16T17:47:36.716Z,3.40
2019-03-16T17:50:07.737Z,3.05
2019-03-16T17:52:37.156Z,3.37
2019-03-16T17:55:09.836Z,2.42
2019-03-16T17:57:39.130Z,2.90
2019-03-16T18:00:13.040Z,3.90
2019-03-16T18:02:51.123Z,2.75
2019-03-16T18:05:13.768Z,3.27
2019-03-16T18:07:42.353Z,3.65
2019-03-16T18:10:11.958Z,3.17
2019-03-16T18:12:41.247Z,3.37
2019-03-16T18:15:13.729Z,3.72
2019-03-16T18:17:42.615Z,2.67
2019-03-16T18:20:12.353Z,2.80
2019-03-16T18:22:40.909Z,2.52
2019-03-16T18:25:11.228Z,2.50
2019-03-16T18:27:40.126Z,3.23
2019-03-16T18:30:19.152Z,3.00
2019-03-16T18:32:48.260Z,2.83
2019-03-16T18:35:18.885Z,3.12
2019-03-16T18:37:47.760Z,3.83
2019-03-16T18:40:16.754Z,2.63
2019-03-16T18:42:45.345Z,2.58
2019-03-16T18:45:24.685Z,2.77
2019-03-16T18:47:54.194Z,2.87
2019-03-16T18:50:22.953Z,3.15
2019-03-16T18:52:52.274Z,2.62
2019-03-16T18:55:21.348Z,2.95
2019-03-16T18:57:49.932Z,2.67
2019-03-16T19:00:33.552Z,3.15
2019-03-16T19:03:02.679Z,3.50
2019-03-16T19:05:31.959Z,2.75
2019-03-16T19:08:03.821Z,2.93
2019-03-16T19:10:32.704Z,3.22
2019-03-16T19:13:01.297Z,3.52
2019-03-16T19:15:31.437Z,2.95
2019-03-16T19:18:00.110Z,4.10
2019-03-16T19:20:28.809Z,2.72
2019-03-16T19:22:57.702Z,3.77
2019-03-16T19:25:27.696Z,3.22
2019-03-16T19:27:57.162Z,4.03
2019-03-16T19:30:25.771Z,2.95
2019-03-16T19:32:54.985Z,3.40
2019-03-16T19:35:23.671Z,3.13
2019-03-16T19:37:52.455Z,3.20
2019-03-16T19:40:22.023Z,3.07
2019-03-16T19:42:50.833Z,3.45
2019-03-16T19:45:19.845Z,2.90
2019-03-16T19:47:48.440Z,3.40
2019-03-16T19:50:17.495Z,3.25
2019-03-16T19:52:46.588Z,3.60
2019-03-16T19:55:15.891Z,3.30
2019-03-16T19:57:44.475Z,3.77
2019-03-16T20:00:19.822Z,3.50
2019-03-16T20:05:19.230Z,3.27
2019-03-16T20:07:47.804Z,3.67
2019-03-16T20:10:17.374Z,3.73
2019-03-16T20:12:46.582Z,3.72
2019-03-16T20:15:16.034Z,3.15
2019-03-16T20:17:44.923Z,3.73
2019-03-16T20:20:17.170Z,2.90
2019-03-16T20:22:46.386Z,3.00
2019-03-16T20:25:15.260Z,2.62
2019-03-16T20:27:43.844Z,3.00
2019-03-16T20:30:13.349Z,2.67
2019-03-16T20:32:42.168Z,2.87
2019-03-16T20:35:12.278Z,2.95
2019-03-16T20:37:40.834Z,4.03
2019-03-16T20:40:10.968Z,3.90
2019-03-16T20:42:40.097Z,4.12
2019-03-16T20:45:09.502Z,3.52
2019-03-16T20:47:38.130Z,4.25
2019-03-16T20:50:11.315Z,3.60
2019-03-16T20:52:43.093Z,3.37
2019-03-16T20:55:11.948Z,4.10
2019-03-16T20:57:40.851Z,3.30
2019-03-16T21:00:13.219Z,3.37
2019-03-16T21:02:42.131Z,3.43
2019-03-16T21:05:11.327Z,3.35
2019-03-16T21:07:40.404Z,3.00
2019-03-16T21:10:10.129Z,2.70
2019-03-16T21:12:38.813Z,2.80
2019-03-16T21:15:09.206Z,3.17
2019-03-16T21:17:38.109Z,3.57
2019-03-16T21:20:10.988Z,2.75
2019-03-16T21:22:40.205Z,3.40
2019-03-16T21:25:09.799Z,3.22
2019-03-16T21:27:38.385Z,2.92
2019-03-16T21:30:13.924Z,3.37
2019-03-16T21:32:42.525Z,3.23
2019-03-16T21:35:11.315Z,2.83
2019-03-16T21:37:40.282Z,3.10
2019-03-16T21:40:10.311Z,2.50
2019-03-16T21:42:38.816Z,3.65
2019-03-16T21:45:08.842Z,3.15
2019-03-16T21:47:37.371Z,3.47
2019-03-16T21:50:07.717Z,3.60
2019-03-16T21:52:36.587Z,3.03
2019-03-16T21:55:08.243Z,2.60
2019-03-16T21:57:36.823Z,3.65
2019-03-16T22:00:07.561Z,2.95
2019-03-16T22:02:36.566Z,3.27
2019-03-16T22:05:07.203Z,3.27
2019-03-16T22:07:36.082Z,3.10
2019-03-16T22:10:07.320Z,2.90
2019-03-16T22:12:36.629Z,3.02
2019-03-16T22:15:07.450Z,3.62
2019-03-16T22:17:36.028Z,3.35
2019-03-16T22:20:10.957Z,3.64
2019-03-16T22:22:39.853Z,2.73
2019-03-16T22:25:09.372Z,3.80
2019-03-16T22:27:38.362Z,3.30
2019-03-16T22:30:08.786Z,3.60
2019-03-16T22:32:37.354Z,3.20
2019-03-16T22:35:08.888Z,3.27
2019-03-16T22:37:37.493Z,3.50
2019-03-16T22:40:14.875Z,3.02
2019-03-16T22:42:43.891Z,3.50
2019-03-16T22:45:15.616Z,3.37
2019-03-16T22:47:44.634Z,3.27
2019-03-16T22:50:17.084Z,2.85
2019-03-16T22:52:46.094Z,3.47
2019-03-16T22:55:16.271Z,2.52
2019-03-16T22:57:45.304Z,2.37
2019-03-16T23:00:24.307Z,3.42
2019-03-16T23:02:54.232Z,2.90
2019-03-16T23:05:23.849Z,2.93
2019-03-16T23:07:52.416Z,3.22
2019-03-16T23:10:22.025Z,2.80
2019-03-16T23:12:54.420Z,2.83
2019-03-16T23:15:24.236Z,2.70
2019-03-16T23:17:54.327Z,2.52
2019-03-16T23:20:23.220Z,2.55
2019-03-16T23:22:52.118Z,2.40
2019-03-16T23:25:22.569Z,2.77
2019-03-16T23:27:51.436Z,3.08
2019-03-16T23:30:20.633Z,2.52
2019-03-16T23:32:50.420Z,2.70
2019-03-16T23:35:19.438Z,3.77
2019-03-16T23:37:48.920Z,2.77
2019-03-16T23:40:17.808Z,2.90
2019-03-16T23:42:47.206Z,3.50
2019-03-16T23:45:15.793Z,3.60
2019-03-16T23:47:44.573Z,3.22
2019-03-16T23:50:13.799Z,3.77
2019-03-16T23:52:42.790Z,2.33
2019-03-16T23:55:11.470Z,2.70
2019-03-16T23:57:40.367Z,3.57
